Terminal Aerodrome Forecast
Issued by NWS

Home | Current Version | Previous Version | Text Only | Print | Product List | Glossary Off
Versions: 1 2 3 4 5 6 7 8 9 10 11 12 13 14 15 16 17 18 19 20 21 22 23

000
FTUS43 KTOP 151037 AAC
TAFFOE
TAF AMD
KFOE 151037Z 1511/1606 07005KT 5SM BR OVC015
      TEMPO 1511/1513 2SM -FZDZ OVC008
     FM151300 08005KT 6SM -FZRA BR OVC014
      TEMPO 1513/1517 3SM FZRA BR OVC007
     FM152200 08005KT 3SM BR VCSH OVC007=

USA.gov is the U.S. government's official web portal to all federal, state and local government web resources and services.